Aviation Digital Data Service (ADDS)

Output produced by TAFs form (0715 UTC 26 March 2017)
found at http://aviationweather.gov/adds/tafs/
 
KSAF 260520Z 2606/2706 31013KT P6SM FEW060 SCT100 
     FM261200 25008KT P6SM SKC 
     FM261700 26014G24KT P6SM FEW060 
     FM270200 33006KT P6SM SKC